Terminal Aerodrome Forecast
Issued by NWS

Home | Current Version | Previous Version | Graphics & Text | Print | Product List | Glossary On
Versions: 1 2 3 4 5 6 7 8 9 10 11 12 13 14 15 16 17 18 19 20 21 22 23 24
000
FTUS43 KMPX 212300
TAFRWF
TAF
KRWF 212332Z 2200/2224 18013KT P6SM BKN150
     FM220400 20008KT 6SM BR SCT005 BKN010
     FM221700 21005KT P6SM BKN015=

USA.gov is the U.S. government's official web portal to all federal, state and local government web resources and services.